Time;durP1;ratioP1;P1;durP2;ratioP2;P2;SDS_P1;SDS_P2;PMS_P1;PMS_P2;Temp;Humidity;BMP_temperature;BMP_pressure;BME280_temperature;BME280_humidity;BME280_pressure;Samples;Min_cycle;Max_cycle;Signal;HPM_P1;HPM_P2
2023/08/13 00:01:08;;;;;;;7.10;2.70;;;;;;;;;;4922032;29;20044;-79
2023/08/13 00:03:34;;;;;;;6.18;2.38;;;;;;;;;;4939100;29;20132;-79
2023/08/13 00:05:59;;;;;;;7.75;2.97;;;;;;;;;;4912011;29;20395;-77
2023/08/13 00:08:25;;;;;;;6.35;2.30;;;;;;;;;;4914923;29;20126;-78
2023/08/13 00:10:50;;;;;;;6.28;2.35;;;;;;;;;;4936976;29;20039;-78
2023/08/13 00:13:16;;;;;;;6.82;2.22;;;;;;;;;;4937129;29;20063;-78
2023/08/13 00:15:41;;;;;;;6.88;2.55;;;;;;;;;;4920620;29;20055;-79
2023/08/13 00:18:07;;;;;;;7.00;2.38;;;;;;;;;;4938835;29;20036;-79
2023/08/13 00:20:32;;;;;;;6.05;2.40;;;;;;;;;;4923577;29;20040;-76
2023/08/13 00:22:58;;;;;;;7.97;3.45;;;;;;;;;;4924643;29;20047;-77
2023/08/13 00:25:23;;;;;;;6.40;2.42;;;;;;;;;;4932935;29;20035;-78
2023/08/13 00:27:54;;;;;;;6.43;2.38;;;;;;;;;;4931243;29;20052;-78
2023/08/13 00:30:20;;;;;;;9.40;2.60;;;;;;;;;;4918086;29;20032;-77
2023/08/13 00:32:46;;;;;;;10.20;2.67;;;;;;;;;;4925440;29;20035;-77
2023/08/13 00:35:12;;;;;;;5.35;2.65;;;;;;;;;;4925750;29;20115;-78
2023/08/13 00:37:37;;;;;;;5.63;2.22;;;;;;;;;;4920886;29;20495;-77
2023/08/13 00:40:04;;;;;;;7.00;2.30;;;;;;;;;;4919879;29;20024;-78
2023/08/13 00:42:30;;;;;;;5.85;2.83;;;;;;;;;;4919850;29;20479;-79
2023/08/13 00:44:56;;;;;;;6.57;2.45;;;;;;;;;;4919897;29;20039;-77
2023/08/13 00:47:21;;;;;;;5.32;2.85;;;;;;;;;;4936717;29;20119;-77
2023/08/13 00:49:49;;;;;;;6.03;2.45;;;;;;;;;;4919641;29;20023;-77
2023/08/13 00:52:15;;;;;;;6.03;2.72;;;;;;;;;;4937001;29;20106;-78
2023/08/13 00:54:41;;;;;;;5.75;2.42;;;;;;;;;;4904119;29;20107;-77
2023/08/13 00:57:08;;;;;;;4.97;2.63;;;;;;;;;;4919696;29;20376;-79
2023/08/13 00:59:33;;;;;;;4.50;2.60;;;;;;;;;;4936621;29;20089;-77
2023/08/13 01:01:59;;;;;;;7.20;3.22;;;;;;;;;;4937294;29;20080;-77
2023/08/13 01:04:27;;;;;;;5.07;2.78;;;;;;;;;;4919279;29;20396;-78
2023/08/13 01:06:56;;;;;;;4.85;2.70;;;;;;;;;;4901933;29;20032;-77
2023/08/13 01:09:21;;;;;;;;;;;;;;;;;;4919467;29;20028;-77
2023/08/13 01:11:47;;;;;;;4.40;2.40;;;;;;;;;;4919366;29;20009;-77
2023/08/13 01:14:15;;;;;;;6.85;2.70;;;;;;;;;;4936313;29;20420;-77
2023/08/13 01:16:42;;;;;;;5.22;2.22;;;;;;;;;;4921785;29;20030;-78
2023/08/13 01:19:09;;;;;;;5.80;2.53;;;;;;;;;;4919463;29;20039;-78
2023/08/13 01:21:35;;;;;;;4.60;2.88;;;;;;;;;;4920752;29;20120;-77
2023/08/13 01:24:00;;;;;;;7.30;2.67;;;;;;;;;;4940105;29;20055;-77
2023/08/13 01:26:26;;;;;;;4.55;2.92;;;;;;;;;;4922616;29;20039;-78
2023/08/13 01:28:55;;;;;;;6.00;2.75;;;;;;;;;;4923197;29;20039;-77
2023/08/13 01:31:31;;;;;;;5.20;2.70;;;;;;;;;;4924293;29;20023;-76
2023/08/13 01:33:57;;;;;;;5.72;2.65;;;;;;;;;;4923807;29;20071;-78
2023/08/13 01:36:26;;;;;;;4.53;2.88;;;;;;;;;;4940082;29;20028;-76
2023/08/13 01:38:53;;;;;;;8.70;2.90;;;;;;;;;;4939638;29;20035;-78
2023/08/13 01:41:18;;;;;;;7.50;2.63;;;;;;;;;;4920402;29;20036;-77
2023/08/13 01:47:33;;;;;;;7.60;2.88;;;;;;;;;;4910943;29;20063;-79
2023/08/13 01:50:03;;;;;;;6.50;3.03;;;;;;;;;;4902741;29;20027;-79
2023/08/13 01:55:20;;;;;;;7.45;2.95;;;;;;;;;;4904720;29;20042;-78
2023/08/13 01:57:46;;;;;;;5.70;2.65;;;;;;;;;;4918253;29;20095;-77
2023/08/13 02:00:15;;;;;;;5.53;2.80;;;;;;;;;;4935154;29;20403;-78
2023/08/13 02:02:41;;;;;;;6.32;2.70;;;;;;;;;;4934490;29;20239;-78
2023/08/13 02:05:07;;;;;;;8.77;2.75;;;;;;;;;;4902166;29;20067;-78
2023/08/13 02:07:34;;;;;;;6.35;2.90;;;;;;;;;;4934823;29;20031;-78
2023/08/13 02:09:59;;;;;;;5.45;2.80;;;;;;;;;;4918158;29;20084;-76
2023/08/13 02:12:34;;;;;;;5.03;2.53;;;;;;;;;;4934652;29;20028;-78
2023/08/13 02:14:59;;;;;;;5.32;2.45;;;;;;;;;;4934758;29;20019;-77
2023/08/13 02:17:33;;;;;;;6.38;3.00;;;;;;;;;;4924256;29;20042;-78
2023/08/13 02:20:10;;;;;;;5.70;2.97;;;;;;;;;;4917731;29;20031;-78
2023/08/13 02:22:35;;;;;;;9.27;4.45;;;;;;;;;;4934493;29;20047;-78
2023/08/13 02:25:17;;;;;;;10.63;4.32;;;;;;;;;;4886229;29;20028;-77
2023/08/13 02:27:50;;;;;;;6.72;3.10;;;;;;;;;;4917662;29;20036;-78
2023/08/13 02:30:16;;;;;;;4.78;2.53;;;;;;;;;;4917851;29;20103;-78
2023/08/13 02:32:41;;;;;;;6.20;2.78;;;;;;;;;;4917510;29;20117;-79
2023/08/13 02:35:07;;;;;;;5.50;3.00;;;;;;;;;;4917949;29;20411;-78
2023/08/13 02:37:33;;;;;;;8.00;3.55;;;;;;;;;;4918104;29;20027;-78
2023/08/13 02:39:59;;;;;;;7.55;3.05;;;;;;;;;;4902348;29;20492;-78
2023/08/13 02:42:25;;;;;;;7.07;2.63;;;;;;;;;;4901287;29;20394;-79
2023/08/13 02:44:51;;;;;;;3.78;2.30;;;;;;;;;;4917648;29;20036;-77
2023/08/13 02:47:16;;;;;;;7.22;2.75;;;;;;;;;;4934371;29;20115;-76
2023/08/13 02:49:42;;;;;;;7.00;2.80;;;;;;;;;;4917211;29;20042;-76
2023/08/13 02:52:07;;;;;;;6.13;2.90;;;;;;;;;;4901760;29;20055;-77
2023/08/13 02:54:35;;;;;;;5.43;2.23;;;;;;;;;;4895070;29;20032;-77
2023/08/13 02:57:03;;;;;;;6.55;2.97;;;;;;;;;;4919525;29;20265;-77
2023/08/13 02:59:29;;;;;;;4.53;2.58;;;;;;;;;;4938617;29;20090;-77
2023/08/13 03:01:54;;;;;;;5.80;2.95;;;;;;;;;;4940933;23;20030;-76
2023/08/13 03:04:20;;;;;;;7.03;2.83;;;;;;;;;;4905951;29;20039;-76
2023/08/13 03:06:45;;;;;;;7.10;3.10;;;;;;;;;;4926506;29;20032;-75
2023/08/13 03:09:18;;;;;;;5.22;2.97;;;;;;;;;;4919783;29;20099;-77
2023/08/13 03:11:43;;;;;;;5.65;2.80;;;;;;;;;;4930427;29;20118;-77
2023/08/13 03:14:09;;;;;;;7.35;2.60;;;;;;;;;;4906331;29;20076;-76
2023/08/13 03:16:35;;;;;;;6.03;2.70;;;;;;;;;;4944882;29;20047;-75
2023/08/13 03:19:00;;;;;;;4.68;2.50;;;;;;;;;;4933790;29;20024;-75
2023/08/13 03:21:26;;;;;;;5.25;2.38;;;;;;;;;;4921700;29;20027;-78
2023/08/13 03:23:51;;;;;;;5.43;2.75;;;;;;;;;;4921452;29;20032;-77
2023/08/13 03:26:17;;;;;;;6.15;2.47;;;;;;;;;;4919037;29;20575;-76
2023/08/13 03:28:44;;;;;;;6.68;2.70;;;;;;;;;;4917415;29;20044;-76
2023/08/13 03:31:14;;;;;;;6.45;3.30;;;;;;;;;;4934833;29;20051;-76
2023/08/13 03:33:46;;;;;;;7.82;4.43;;;;;;;;;;4917765;29;20032;-74
2023/08/13 03:36:12;;;;;;;7.25;4.10;;;;;;;;;;4917828;29;20053;-74
2023/08/13 03:38:38;;;;;;;4.20;2.45;;;;;;;;;;4917592;29;20047;-76
2023/08/13 03:41:03;;;;;;;5.15;2.40;;;;;;;;;;4934545;29;20035;-77
2023/08/13 03:43:29;;;;;;;3.88;2.35;;;;;;;;;;4934371;29;20032;-75
2023/08/13 03:45:55;;;;;;;6.25;2.65;;;;;;;;;;4917036;29;20115;-76
2023/08/13 03:48:20;;;;;;;4.18;2.30;;;;;;;;;;4900935;29;20067;-76
2023/08/13 03:50:46;;;;;;;4.68;2.30;;;;;;;;;;4933917;29;20031;-77
2023/08/13 03:53:12;;;;;;;3.22;2.00;;;;;;;;;;4917085;29;20027;-76
2023/08/13 03:55:39;;;;;;;5.75;2.42;;;;;;;;;;4917107;29;20038;-76
2023/08/13 03:58:07;;;;;;;5.68;1.92;;;;;;;;;;4917211;29;20035;-74
2023/08/13 04:00:32;;;;;;;5.50;2.30;;;;;;;;;;4902634;29;20042;-78
2023/08/13 04:02:58;;;;;;;6.47;2.22;;;;;;;;;;4920353;29;20039;-76
2023/08/13 04:05:23;;;;;;;7.07;2.47;;;;;;;;;;4937554;29;20028;-75
2023/08/13 04:07:49;;;;;;;6.05;2.63;;;;;;;;;;4920615;29;20496;-77
2023/08/13 04:10:14;;;;;;;4.32;2.28;;;;;;;;;;4911000;29;20480;-76
2023/08/13 04:12:40;;;;;;;5.68;2.13;;;;;;;;;;4933893;29;20024;-77
2023/08/13 04:15:06;;;;;;;5.03;2.40;;;;;;;;;;4920002;29;20050;-77
2023/08/13 04:17:32;;;;;;;4.63;2.40;;;;;;;;;;4904454;29;20079;-76
2023/08/13 04:19:58;;;;;;;6.65;2.63;;;;;;;;;;4885515;29;20036;-77
2023/08/13 04:22:23;;;;;;;4.15;2.42;;;;;;;;;;4919633;29;20028;-75
2023/08/13 04:24:52;;;;;;;6.03;2.40;;;;;;;;;;4919729;29;20032;-77
2023/08/13 04:27:20;;;;;;;6.30;2.70;;;;;;;;;;4919761;29;20035;-77
2023/08/13 04:29:46;;;;;;;5.40;2.40;;;;;;;;;;4919782;29;20055;-76
2023/08/13 04:32:12;;;;;;;6.15;2.60;;;;;;;;;;4919577;29;20508;-76
2023/08/13 04:34:37;;;;;;;4.95;2.55;;;;;;;;;;4888903;29;20126;-76
2023/08/13 04:37:03;;;;;;;6.82;2.80;;;;;;;;;;4904333;29;20079;-76
2023/08/13 04:39:29;;;;;;;7.85;2.47;;;;;;;;;;4920126;29;20563;-75
2023/08/13 04:41:58;;;;;;;5.25;2.35;;;;;;;;;;4937223;29;20036;-76
2023/08/13 04:44:24;;;;;;;3.72;2.08;;;;;;;;;;4920166;29;20039;-75
2023/08/13 04:46:49;;;;;;;5.70;2.50;;;;;;;;;;4919891;29;20091;-77
2023/08/13 04:49:15;;;;;;;5.25;2.42;;;;;;;;;;4888702;29;20031;-77
2023/08/13 04:51:40;;;;;;;5.97;2.15;;;;;;;;;;4919636;29;20110;-76
2023/08/13 04:54:06;;;;;;;4.30;2.05;;;;;;;;;;4919444;29;20028;-75
2023/08/13 04:56:32;;;;;;;3.78;2.17;;;;;;;;;;4919785;29;20468;-75
2023/08/13 04:58:58;;;;;;;4.75;2.33;;;;;;;;;;4936829;29;20028;-76
2023/08/13 05:01:24;;;;;;;4.43;2.38;;;;;;;;;;4903538;29;20035;-76
2023/08/13 05:03:53;;;;;;;6.13;2.70;;;;;;;;;;4919602;29;20027;-76
2023/08/13 05:06:19;;;;;;;5.05;2.35;;;;;;;;;;4908615;29;20040;-75
2023/08/13 05:08:44;;;;;;;3.97;2.28;;;;;;;;;;4933050;29;20066;-77
2023/08/13 05:11:10;;;;;;;4.93;2.08;;;;;;;;;;4903898;29;20036;-77
2023/08/13 05:13:36;;;;;;;5.65;2.40;;;;;;;;;;4892504;29;20039;-76
2023/08/13 05:16:02;;;;;;;5.40;2.30;;;;;;;;;;4916221;29;20480;-76
2023/08/13 05:18:29;;;;;;;5.15;2.38;;;;;;;;;;4901501;29;20036;-75
2023/08/13 05:20:55;;;;;;;5.63;2.17;;;;;;;;;;4904759;29;20046;-77
2023/08/13 05:23:23;;;;;;;5.03;2.53;;;;;;;;;;4922848;29;20610;-77
2023/08/13 05:25:49;;;;;;;5.20;2.15;;;;;;;;;;4902911;29;20074;-77
2023/08/13 05:28:14;;;;;;;5.70;2.63;;;;;;;;;;4915604;29;20086;-77
2023/08/13 05:30:40;;;;;;;7.22;2.88;;;;;;;;;;4942363;29;20039;-78
2023/08/13 05:33:07;;;;;;;4.97;3.00;;;;;;;;;;4927963;29;20062;-76
2023/08/13 05:35:33;;;;;;;5.90;2.85;;;;;;;;;;4932201;29;20028;-76
2023/08/13 05:37:59;;;;;;;3.95;2.20;;;;;;;;;;4914852;29;20024;-77
2023/08/13 05:40:24;;;;;;;5.90;2.70;;;;;;;;;;4946738;29;20038;-76
2023/08/13 05:42:50;;;;;;;5.82;2.90;;;;;;;;;;4926764;29;20032;-76
2023/08/13 05:45:16;;;;;;;4.00;2.30;;;;;;;;;;4937869;29;20043;-76
2023/08/13 05:47:42;;;;;;;3.63;2.40;;;;;;;;;;4939245;29;20060;-76
2023/08/13 05:50:08;;;;;;;6.80;2.35;;;;;;;;;;4931126;29;20039;-76
2023/08/13 05:52:33;;;;;;;5.10;2.63;;;;;;;;;;4918595;29;20106;-75
2023/08/13 05:54:59;;;;;;;4.80;2.50;;;;;;;;;;4935575;29;20058;-76
2023/08/13 05:57:25;;;;;;;5.32;2.50;;;;;;;;;;4935532;29;20027;-75
2023/08/13 05:59:50;;;;;;;4.38;2.60;;;;;;;;;;4935428;29;20435;-77
2023/08/13 06:02:16;;;;;;;3.95;2.05;;;;;;;;;;4935261;29;20091;-75
2023/08/13 06:04:42;;;;;;;7.35;2.30;;;;;;;;;;4925239;29;20032;-77
2023/08/13 06:07:08;;;;;;;4.00;2.00;;;;;;;;;;4916406;29;20408;-76
2023/08/13 06:09:33;;;;;;;5.70;2.17;;;;;;;;;;4918211;29;20032;-77
2023/08/13 06:11:59;;;;;;;3.55;1.80;;;;;;;;;;4934996;29;20042;-77
2023/08/13 06:14:25;;;;;;;4.32;2.53;;;;;;;;;;4934859;29;20047;-74
2023/08/13 06:16:50;;;;;;;4.55;2.10;;;;;;;;;;4917969;29;20114;-76
2023/08/13 06:19:16;;;;;;;3.92;2.13;;;;;;;;;;4885223;29;20024;-74
2023/08/13 06:21:41;;;;;;;4.00;2.28;;;;;;;;;;4888398;29;20492;-76
2023/08/13 06:24:07;;;;;;;5.40;2.15;;;;;;;;;;4927208;29;20080;-76
2023/08/13 06:26:32;;;;;;;4.97;2.22;;;;;;;;;;4934852;29;20403;-77
2023/08/13 06:28:58;;;;;;;5.03;2.05;;;;;;;;;;4934403;29;20410;-76
2023/08/13 06:31:23;;;;;;;4.97;2.38;;;;;;;;;;4934368;29;20083;-77
2023/08/13 06:33:49;;;;;;;6.57;2.38;;;;;;;;;;4902037;29;20038;-77
2023/08/13 06:36:14;;;;;;;4.25;1.98;;;;;;;;;;4917680;29;20380;-76
2023/08/13 06:38:40;;;;;;;4.28;2.22;;;;;;;;;;4917736;29;20051;-77
2023/08/13 06:41:06;;;;;;;4.43;1.95;;;;;;;;;;4934685;29;20043;-76
2023/08/13 06:43:32;;;;;;;4.97;2.00;;;;;;;;;;4934526;29;20027;-75
2023/08/13 06:45:58;;;;;;;8.10;2.78;;;;;;;;;;4934906;29;20027;-74
2023/08/13 06:48:24;;;;;;;3.35;1.85;;;;;;;;;;4934544;29;20036;-76
2023/08/13 06:50:53;;;;;;;6.18;1.70;;;;;;;;;;4934677;29;20541;-76
2023/08/13 06:53:19;;;;;;;4.38;2.10;;;;;;;;;;4934380;29;20063;-78
2023/08/13 06:55:44;;;;;;;6.35;1.92;;;;;;;;;;4934716;29;20440;-78
2023/08/13 06:58:10;;;;;;;4.43;1.67;;;;;;;;;;4917281;29;20032;-77
2023/08/13 07:00:37;;;;;;;5.95;2.33;;;;;;;;;;4934599;29;20059;-77
2023/08/13 07:03:02;;;;;;;5.82;1.70;;;;;;;;;;4934281;29;20039;-78
2023/08/13 07:05:28;;;;;;;5.30;1.80;;;;;;;;;;4934258;29;20028;-76
2023/08/13 07:07:53;;;;;;;3.28;1.58;;;;;;;;;;4934206;29;20039;-77
2023/08/13 07:10:19;;;;;;;4.63;1.40;;;;;;;;;;4934558;29;20062;-74
2023/08/13 07:12:44;;;;;;;4.43;1.70;;;;;;;;;;4934088;29;20028;-76
2023/08/13 07:15:10;;;;;;;4.30;1.65;;;;;;;;;;4917263;29;20031;-77
2023/08/13 07:17:35;;;;;;;4.88;2.10;;;;;;;;;;4917213;29;20027;-77
2023/08/13 07:20:04;;;;;;;4.60;1.90;;;;;;;;;;4934034;29;20031;-76
2023/08/13 07:22:29;;;;;;;6.70;1.75;;;;;;;;;;4916880;29;20094;-76
2023/08/13 07:24:55;;;;;;;3.47;1.70;;;;;;;;;;4934125;29;20087;-77
2023/08/13 07:27:20;;;;;;;2.92;1.60;;;;;;;;;;4917178;29;20031;-74
2023/08/13 07:29:46;;;;;;;2.97;1.80;;;;;;;;;;4917048;29;20039;-77
2023/08/13 07:32:11;;;;;;;3.95;1.33;;;;;;;;;;4934101;29;20031;-77
2023/08/13 07:34:37;;;;;;;2.85;1.55;;;;;;;;;;4916996;29;20023;-77
2023/08/13 07:37:02;;;;;;;4.95;1.60;;;;;;;;;;4920716;29;20106;-77
2023/08/13 07:39:30;;;;;;;4.80;1.80;;;;;;;;;;4920764;29;20067;-76
2023/08/13 07:41:55;;;;;;;4.00;1.55;;;;;;;;;;4938091;29;20498;-76
2023/08/13 07:44:21;;;;;;;5.28;1.75;;;;;;;;;;4937784;29;20028;-76
2023/08/13 07:46:50;;;;;;;4.30;1.80;;;;;;;;;;4938291;29;20036;-77
2023/08/13 07:49:16;;;;;;;2.78;1.40;;;;;;;;;;4920705;29;20428;-77
2023/08/13 07:51:41;;;;;;;3.42;1.95;;;;;;;;;;4905178;29;20094;-74
2023/08/13 07:54:07;;;;;;;3.85;1.60;;;;;;;;;;4905689;29;20059;-75
2023/08/13 07:56:32;;;;;;;4.28;1.42;;;;;;;;;;4921943;29;20086;-77
2023/08/13 07:58:58;;;;;;;4.10;1.60;;;;;;;;;;4922167;29;20047;-76
2023/08/13 08:01:26;;;;;;;3.28;1.52;;;;;;;;;;4910779;29;20040;-74
2023/08/13 08:03:51;;;;;;;4.25;1.48;;;;;;;;;;4927678;29;20024;-76
2023/08/13 08:06:17;;;;;;;5.25;1.75;;;;;;;;;;4937949;29;20090;-76
2023/08/13 08:08:42;;;;;;;3.35;1.33;;;;;;;;;;4936811;29;20352;-77
2023/08/13 08:11:08;;;;;;;3.50;1.58;;;;;;;;;;4955996;29;20134;-76
2023/08/13 08:13:34;;;;;;;5.25;1.67;;;;;;;;;;4939900;29;20207;-76
2023/08/13 08:16:00;;;;;;;3.35;1.58;;;;;;;;;;4957271;29;20032;-76
2023/08/13 08:18:25;;;;;;;6.47;1.70;;;;;;;;;;4955706;29;20099;-75
2023/08/13 08:20:51;;;;;;;4.72;1.60;;;;;;;;;;4923097;29;20043;-77
2023/08/13 08:23:16;;;;;;;3.03;1.50;;;;;;;;;;4937452;29;20110;-75
2023/08/13 08:25:44;;;;;;;3.70;1.33;;;;;;;;;;4936841;29;20066;-76
2023/08/13 08:28:09;;;;;;;3.53;1.70;;;;;;;;;;4937134;29;20035;-74
2023/08/13 08:30:35;;;;;;;2.80;1.17;;;;;;;;;;4920140;29;20047;-77
2023/08/13 08:33:00;;;;;;;2.65;1.30;;;;;;;;;;4920029;29;20115;-76
2023/08/13 08:35:26;;;;;;;3.15;1.60;;;;;;;;;;4904048;29;20485;-77
2023/08/13 08:37:51;;;;;;;2.97;1.60;;;;;;;;;;4920058;29;20035;-78
2023/08/13 08:40:17;;;;;;;4.47;1.50;;;;;;;;;;4920192;29;20079;-75
2023/08/13 08:42:43;;;;;;;4.35;2.17;;;;;;;;;;4904116;29;20042;-77
2023/08/13 08:45:09;;;;;;;4.07;1.92;;;;;;;;;;4936932;29;20047;-76
2023/08/13 08:47:35;;;;;;;4.65;1.90;;;;;;;;;;4935978;29;20503;-77
2023/08/13 08:50:04;;;;;;;4.65;1.90;;;;;;;;;;4919651;29;20038;-77
2023/08/13 08:52:30;;;;;;;3.15;1.70;;;;;;;;;;4919330;29;20087;-75
2023/08/13 08:54:56;;;;;;;3.78;1.73;;;;;;;;;;4936561;29;20063;-76
2023/08/13 08:57:21;;;;;;;3.30;1.75;;;;;;;;;;4936371;29;20508;-77
2023/08/13 08:59:47;;;;;;;3.72;1.90;;;;;;;;;;4936676;29;20467;-77
2023/08/13 09:02:13;;;;;;;3.28;1.70;;;;;;;;;;4919467;29;20491;-77
2023/08/13 09:04:40;;;;;;;3.58;1.90;;;;;;;;;;4916334;29;20056;-76
2023/08/13 09:07:06;;;;;;;3.03;1.67;;;;;;;;;;4919729;29;20036;-76
2023/08/13 09:09:31;;;;;;;6.00;2.30;;;;;;;;;;4937069;29;20062;-74
2023/08/13 09:11:57;;;;;;;3.90;1.90;;;;;;;;;;4936468;29;20067;-76
2023/08/13 09:14:24;;;;;;;4.95;2.00;;;;;;;;;;4936927;29;20083;-75
2023/08/13 09:16:50;;;;;;;5.00;1.83;;;;;;;;;;4916269;29;20514;-74
2023/08/13 09:19:16;;;;;;;5.18;2.15;;;;;;;;;;4904236;29;20396;-77
2023/08/13 09:21:50;;;;;;;3.10;1.80;;;;;;;;;;4919801;29;20483;-75
2023/08/13 09:24:15;;;;;;;4.15;2.20;;;;;;;;;;4936860;29;20111;-75
2023/08/13 09:26:41;;;;;;;4.53;2.20;;;;;;;;;;4919669;29;20458;-77
2023/08/13 09:29:07;;;;;;;6.28;2.50;;;;;;;;;;4919501;29;20514;-77
2023/08/13 09:31:33;;;;;;;5.55;2.42;;;;;;;;;;4936366;29;20028;-77
2023/08/13 09:33:59;;;;;;;4.32;2.10;;;;;;;;;;4903381;29;20554;-75
2023/08/13 09:36:24;;;;;;;3.63;2.50;;;;;;;;;;4936004;29;20086;-78
2023/08/13 09:38:51;;;;;;;4.30;2.08;;;;;;;;;;4935923;29;20515;-77
2023/08/13 09:41:17;;;;;;;4.85;2.22;;;;;;;;;;4918903;29;20407;-77
2023/08/13 09:43:44;;;;;;;4.47;2.20;;;;;;;;;;4935941;29;20031;-77
2023/08/13 09:46:11;;;;;;;4.22;1.90;;;;;;;;;;4936046;29;20036;-75
2023/08/13 09:48:38;;;;;;;4.13;1.97;;;;;;;;;;4935779;29;20501;-77
2023/08/13 09:51:04;;;;;;;5.07;2.20;;;;;;;;;;4918811;29;20280;-76
2023/08/13 09:53:30;;;;;;;4.57;2.10;;;;;;;;;;4935263;29;20043;-77
2023/08/13 09:55:59;;;;;;;5.05;1.70;;;;;;;;;;4935269;29;20024;-76
2023/08/13 09:58:24;;;;;;;;;;;;;;;;;;4917995;29;20048;-77
2023/08/13 10:00:50;;;;;;;4.63;1.63;;;;;;;;;;4918149;29;19970;-75
2023/08/13 10:03:16;;;;;;;3.97;1.60;;;;;;;;;;4934949;29;20122;-77
2023/08/13 10:05:43;;;;;;;7.18;3.17;;;;;;;;;;4892873;29;20028;-76
2023/08/13 10:08:09;;;;;;;4.65;2.10;;;;;;;;;;4917969;29;20039;-76
2023/08/13 10:10:36;;;;;;;3.80;2.03;;;;;;;;;;4902395;29;20403;-77
2023/08/13 10:13:02;;;;;;;4.85;1.80;;;;;;;;;;4917838;29;20419;-76
2023/08/13 10:15:28;;;;;;;3.90;1.80;;;;;;;;;;4935169;29;20099;-75
2023/08/13 10:17:53;;;;;;;4.63;1.77;;;;;;;;;;4918238;29;20028;-75
2023/08/13 10:20:19;;;;;;;3.40;1.60;;;;;;;;;;4935127;29;20503;-78
2023/08/13 10:22:45;;;;;;;3.33;1.52;;;;;;;;;;4917877;29;20032;-76
2023/08/13 10:25:25;;;;;;;2.78;1.48;;;;;;;;;;4935106;29;20032;-76
2023/08/13 10:27:52;;;;;;;3.45;1.60;;;;;;;;;;4918279;29;20035;-76
2023/08/13 10:30:17;;;;;;;4.10;1.80;;;;;;;;;;4935131;29;20031;-77
2023/08/13 10:32:59;;;;;;;3.50;1.70;;;;;;;;;;4917476;29;20023;-76
2023/08/13 10:35:28;;;;;;;3.17;1.50;;;;;;;;;;4899098;29;20505;-76
2023/08/13 10:37:57;;;;;;;5.25;2.00;;;;;;;;;;4918891;29;20046;-75
2023/08/13 10:40:23;;;;;;;3.15;1.30;;;;;;;;;;4937594;29;20115;-76
2023/08/13 10:42:50;;;;;;;4.47;1.40;;;;;;;;;;4940419;29;20089;-76
2023/08/13 10:45:19;;;;;;;3.42;1.75;;;;;;;;;;4925765;29;20042;-75
2023/08/13 10:47:48;;;;;;;4.32;1.73;;;;;;;;;;4942255;29;20024;-77
2023/08/13 10:50:13;;;;;;;;;;;;;;;;;;4927446;29;20028;-78
2023/08/13 10:52:38;;;;;;;4.57;1.70;;;;;;;;;;4918602;29;19922;-76
2023/08/13 10:55:04;;;;;;;3.55;1.70;;;;;;;;;;4934548;29;20110;-76
2023/08/13 10:57:30;;;;;;;3.63;1.85;;;;;;;;;;4934413;29;20115;-77
2023/08/13 10:59:56;;;;;;;5.40;2.15;;;;;;;;;;4934276;29;20036;-77
2023/08/13 11:02:22;;;;;;;19.67;11.43;;;;;;;;;;4934054;29;20031;-75
2023/08/13 11:04:47;;;;;;;15.70;9.88;;;;;;;;;;4907751;29;20119;-76
2023/08/13 11:07:14;;;;;;;17.33;10.75;;;;;;;;;;4934360;29;20488;-76
2023/08/13 11:09:40;;;;;;;10.90;5.60;;;;;;;;;;4936030;29;20036;-77
2023/08/13 11:12:07;;;;;;;4.80;2.65;;;;;;;;;;4921117;29;20031;-78
2023/08/13 11:14:32;;;;;;;6.00;3.80;;;;;;;;;;4921153;29;20500;-75
2023/08/13 11:16:58;;;;;;;6.75;2.20;;;;;;;;;;4920812;29;20075;-75
2023/08/13 11:19:24;;;;;;;7.93;3.30;;;;;;;;;;4937871;29;20042;-76
2023/08/13 11:21:49;;;;;;;2.30;1.30;;;;;;;;;;4937736;29;20040;-77
2023/08/13 11:24:15;;;;;;;7.55;2.58;;;;;;;;;;4937842;29;20028;-77
2023/08/13 11:26:40;;;;;;;4.95;2.42;;;;;;;;;;4937816;29;20020;-75
2023/08/13 11:29:06;;;;;;;2.67;1.30;;;;;;;;;;4905088;29;20043;-77
2023/08/13 11:31:35;;;;;;;3.30;1.35;;;;;;;;;;4937741;29;20064;-77
2023/08/13 11:34:00;;;;;;;3.83;1.90;;;;;;;;;;4904825;29;20062;-81
2023/08/13 11:36:26;;;;;;;75.97;58.10;;;;;;;;;;4921824;29;20043;-81
2023/08/13 11:38:52;;;;;;;17.80;12.18;;;;;;;;;;4921211;29;20039;-82
2023/08/13 11:41:20;;;;;;;30.55;20.27;;;;;;;;;;4938339;29;20119;-83
2023/08/13 11:43:51;;;;;;;16.77;12.02;;;;;;;;;;4938192;29;20032;-82
2023/08/13 11:46:17;;;;;;;27.73;21.02;;;;;;;;;;4896444;29;20072;-82
2023/08/13 11:48:43;;;;;;;18.52;11.77;;;;;;;;;;4920662;29;20118;-81
2023/08/13 11:51:13;;;;;;;18.98;14.27;;;;;;;;;;4905173;29;20043;-81
2023/08/13 11:53:42;;;;;;;24.88;16.83;;;;;;;;;;4905391;29;20038;-83
2023/08/13 11:56:11;;;;;;;6.82;4.63;;;;;;;;;;4911324;29;20036;-83
2023/08/13 11:58:37;;;;;;;5.60;2.38;;;;;;;;;;4917434;29;20035;-82
2023/08/13 12:01:03;;;;;;;3.42;1.63;;;;;;;;;;4904451;29;20050;-83
2023/08/13 12:03:38;;;;;;;4.00;1.98;;;;;;;;;;4886620;29;20048;-82
2023/08/13 12:06:04;;;;;;;3.88;1.55;;;;;;;;;;4920763;29;20040;-81
2023/08/13 12:08:30;;;;;;;5.10;1.63;;;;;;;;;;4920820;29;20068;-80
2023/08/13 12:10:58;;;;;;;3.08;1.58;;;;;;;;;;4904766;29;20036;-81
2023/08/13 12:13:24;;;;;;;5.15;2.10;;;;;;;;;;4905140;29;20098;-80
2023/08/13 12:16:11;;;;;;;4.28;1.90;;;;;;;;;;4920385;29;20423;-81
2023/08/13 12:19:29;;;;;;;4.53;1.73;;;;;;;;;;4899541;29;20036;-82
2023/08/13 12:22:19;;;;;;;5.22;1.33;;;;;;;;;;4926221;23;20510;-79
2023/08/13 12:24:51;;;;;;;2.65;1.60;;;;;;;;;;4866633;29;20033;-80
2023/08/13 12:27:19;;;;;;;197.85;139.98;;;;;;;;;;4934205;29;20044;-82
2023/08/13 12:33:15;;;;;;;3.63;2.20;;;;;;;;;;4924851;29;20068;-84
2023/08/13 12:35:40;;;;;;;6.03;1.70;;;;;;;;;;4921920;29;20028;-84
2023/08/13 12:38:06;;;;;;;3.58;1.48;;;;;;;;;;4905613;29;20499;-84
2023/08/13 12:40:31;;;;;;;7.75;2.13;;;;;;;;;;4887583;29;20059;-84
2023/08/13 12:42:57;;;;;;;4.05;1.60;;;;;;;;;;4889767;29;20043;-76
2023/08/13 12:45:23;;;;;;;3.00;1.33;;;;;;;;;;4922040;29;20048;-79
2023/08/13 12:47:48;;;;;;;3.05;1.35;;;;;;;;;;4935909;29;20031;-79
2023/08/13 12:50:14;;;;;;;3.17;1.60;;;;;;;;;;4890552;29;20020;-78
2023/08/13 12:52:40;;;;;;;5.00;1.88;;;;;;;;;;4899288;29;20563;-77
2023/08/13 12:55:05;;;;;;;5.40;1.80;;;;;;;;;;4916853;29;20392;-78
2023/08/13 12:57:31;;;;;;;3.92;1.30;;;;;;;;;;4917355;29;20612;-77
2023/08/13 12:59:56;;;;;;;2.50;1.20;;;;;;;;;;4917685;29;20036;-77
2023/08/13 13:02:37;;;;;;;3.60;1.27;;;;;;;;;;4900726;29;20033;-78
2023/08/13 13:09:22;;;;;;;4.75;1.40;;;;;;;;;;4922274;29;20035;-79
2023/08/13 13:11:48;;;;;;;3.20;1.52;;;;;;;;;;4892438;29;20508;-79
2023/08/13 13:14:14;;;;;;;2.65;1.30;;;;;;;;;;4926834;29;20028;-79
2023/08/13 13:20:10;;;;;;;2.95;1.60;;;;;;;;;;4908074;29;20048;-78
2023/08/13 13:22:40;;;;;;;3.13;1.60;;;;;;;;;;4925281;29;20535;-78
2023/08/13 13:25:24;;;;;;;4.60;1.58;;;;;;;;;;4910512;29;20197;-79
2023/08/13 13:28:01;;;;;;;4.05;1.90;;;;;;;;;;4918707;29;20036;-79
2023/08/13 13:30:56;;;;;;;2.75;1.65;;;;;;;;;;4901412;29;20056;-78
2023/08/13 13:33:27;;;;;;;4.05;1.48;;;;;;;;;;4884369;29;20063;-79
2023/08/13 13:35:55;;;;;;;3.03;1.45;;;;;;;;;;4900484;29;20032;-76
2023/08/13 13:38:21;;;;;;;;;;;;;;;;;;4900925;29;20028;-78
2023/08/13 13:40:48;;;;;;;3.10;1.40;;;;;;;;;;4900057;29;19911;-79
2023/08/13 13:43:32;;;;;;;6.70;1.45;;;;;;;;;;4916946;29;20056;-78
2023/08/13 13:45:58;;;;;;;3.50;1.50;;;;;;;;;;4900353;29;20468;-78
2023/08/13 13:48:23;;;;;;;3.08;1.50;;;;;;;;;;4916555;29;20060;-79
2023/08/13 13:50:51;;;;;;;3.05;1.63;;;;;;;;;;4899903;29;20035;-76
2023/08/13 13:53:17;;;;;;;4.00;1.58;;;;;;;;;;4868573;29;20040;-77
2023/08/13 13:55:42;;;;;;;3.38;1.70;;;;;;;;;;4899665;29;20031;-79
2023/08/13 13:58:10;;;;;;;3.55;1.80;;;;;;;;;;4899639;29;20060;-79
2023/08/13 14:00:43;;;;;;;3.80;1.80;;;;;;;;;;4899612;29;20455;-77
2023/08/13 14:03:14;;;;;;;3.65;1.77;;;;;;;;;;4916226;29;20036;-77
2023/08/13 14:05:40;;;;;;;3.42;1.77;;;;;;;;;;4899336;29;20028;-79
2023/08/13 14:08:06;;;;;;;3.55;1.60;;;;;;;;;;4884016;29;20565;-79
2023/08/13 14:10:49;;;;;;;3.67;1.90;;;;;;;;;;4902428;29;20036;-78
2023/08/13 14:13:22;;;;;;;2.75;1.23;;;;;;;;;;4916346;29;20299;-79
2023/08/13 14:15:58;;;;;;;7.45;1.98;;;;;;;;;;4899466;29;20508;-79
2023/08/13 14:18:26;;;;;;;2.85;1.40;;;;;;;;;;4916368;29;20087;-78
2023/08/13 14:20:59;;;;;;;12.00;2.33;;;;;;;;;;4916655;29;20036;-80
2023/08/13 14:23:24;;;;;;;5.70;2.47;;;;;;;;;;4899300;29;20600;-79
2023/08/13 14:26:00;;;;;;;3.55;1.50;;;;;;;;;;4899729;29;20060;-77
2023/08/13 14:28:40;;;;;;;4.50;1.73;;;;;;;;;;4899924;29;20111;-79
2023/08/13 14:32:05;;;;;;;;;;;;;;;;;;;;;
2023/08/13 14:34:53;;;;;;;4.85;1.67;;;;;;;;;;4885983;29;20028;-80
2023/08/13 14:37:21;;;;;;;2.83;1.60;;;;;;;;;;4884494;29;20039;-78
2023/08/13 14:39:56;;;;;;;3.67;1.40;;;;;;;;;;4910314;29;20503;-78
2023/08/13 14:42:21;;;;;;;2.47;1.27;;;;;;;;;;4915931;29;20115;-78
2023/08/13 14:45:05;;;;;;;3.65;1.70;;;;;;;;;;4899041;29;20043;-78
2023/08/13 14:47:33;;;;;;;3.38;1.65;;;;;;;;;;4917040;29;20100;-78
2023/08/13 14:53:53;;;;;;;3.05;1.52;;;;;;;;;;4881407;29;20044;-78
2023/08/13 14:56:19;;;;;;;3.95;1.70;;;;;;;;;;4896344;29;20028;-77
2023/08/13 14:58:44;;;;;;;2.30;1.40;;;;;;;;;;4865126;29;20156;-79
2023/08/13 15:01:10;;;;;;;5.93;1.67;;;;;;;;;;4864784;29;20040;-78
2023/08/13 15:03:57;;;;;;;3.75;1.98;;;;;;;;;;4969743;28;20141;-78
2023/08/13 15:06:23;;;;;;;4.45;1.65;;;;;;;;;;4973217;28;20026;-80